PAL102 RPLL-KLAX
Flight info
| Callsign | PAL102 |
|---|---|
| Flight time | N/A |
| Altitude | 33000 |
| Route | JOM2R JOM A590 BUBDO Y527 DOMBI Y57 POROT/N0494F350 Y809 AVBET OTR11 LEPKI DCT 40N160E 42N170E 43N180E/N0495F370 44N170W 45N160W 44N150W 42N140W/N0481F390 38N130W DCT ALLBE DCT PIRAT DCT BURGL IRNMN2 |
| Aircraft | A35K/H-SDE2E3GHIJ3J4J5LM1ORWXY/LB1D1 |
Departure
| Time | 2026-05-04 14:24 |
|---|---|
| Airport | Ninoy Aquino International Airport (RPLL) |
Arrival
| Time | N/A |
|---|---|
| Airport | Los Angeles International Airport (KLAX) |
| Time | Latitude | Longitude | Altitude | Speed | Heading |
|---|---|---|---|---|---|
| 2026-05-04 13:58 | 14.50330 | 121.00420 | 75 ft | 0 kts | 18° |
| 2026-05-04 14:11 | 14.50323 | 121.00418 | 64 ft | 4 kts | 43° |
| 2026-05-04 14:11 | 14.50282 | 121.00401 | 64 ft | 4 kts | 353° |
| 2026-05-04 14:11 | 14.50264 | 121.00413 | 64 ft | 4 kts | 292° |
| 2026-05-04 14:12 | 14.50261 | 121.00437 | 63 ft | 3 kts | 243° |
| 2026-05-04 14:12 | 14.50272 | 121.00456 | 63 ft | 4 kts | 240° |
| 2026-05-04 14:12 | 14.50284 | 121.00479 | 63 ft | 0 kts | 240° |
| 2026-05-04 14:16 | 14.50272 | 121.00457 | 61 ft | 12 kts | 241° |
| 2026-05-04 14:16 | 14.50192 | 121.00345 | 66 ft | 21 kts | 206° |
| 2026-05-04 14:17 | 14.50049 | 121.00208 | 64 ft | 12 kts | 240° |
| 2026-05-04 14:17 | 14.50006 | 121.00130 | 64 ft | 13 kts | 240° |
| 2026-05-04 14:17 | 14.49958 | 121.00044 | 64 ft | 0 kts | 240° |
| 2026-05-04 14:18 | 14.49958 | 121.00043 | 64 ft | 0 kts | 240° |
| 2026-05-04 14:19 | 14.49938 | 121.00007 | 64 ft | 6 kts | 240° |
| 2026-05-04 14:19 | 14.49910 | 120.99973 | 66 ft | 6 kts | 211° |
| 2026-05-04 14:19 | 14.49898 | 120.99969 | 67 ft | 0 kts | 194° |
| 2026-05-04 14:22 | 14.49896 | 120.99969 | 68 ft | 3 kts | 188° |
| 2026-05-04 14:22 | 14.49836 | 120.99988 | 64 ft | 14 kts | 149° |
| 2026-05-04 14:22 | 14.49818 | 121.00064 | 67 ft | 11 kts | 68° |
| 2026-05-04 14:22 | 14.49833 | 121.00092 | 70 ft | 0 kts | 60° |
| 2026-05-04 14:23 | 14.49834 | 121.00095 | 64 ft | 3 kts | 60° |
| 2026-05-04 14:23 | 14.49907 | 121.00227 | 63 ft | 49 kts | 60° |
| 2026-05-04 14:23 | 14.50172 | 121.00704 | 66 ft | 102 kts | 60° |
| 2026-05-04 14:24 | 14.50604 | 121.01482 | 64 ft | 147 kts | 60° |
| 2026-05-04 14:24 | 14.51170 | 121.02501 | 241 ft | 169 kts | 63° |
| 2026-05-04 14:24 | 14.51741 | 121.03549 | 733 ft | 165 kts | 62° |
| 2026-05-04 14:24 | 14.52307 | 121.04568 | 1243 ft | 163 kts | 60° |
| 2026-05-04 14:25 | 14.52875 | 121.05585 | 1735 ft | 164 kts | 61° |
| 2026-05-04 14:25 | 14.54073 | 121.07739 | 2375 ft | 184 kts | 60° |
| 2026-05-04 14:25 | 14.54735 | 121.08930 | 2534 ft | 199 kts | 60° |
| 2026-05-04 14:26 | 14.55450 | 121.10218 | 2724 ft | 214 kts | 60° |
| 2026-05-04 14:26 | 14.56216 | 121.11599 | 2881 ft | 231 kts | 60° |
| 2026-05-04 14:26 | 14.56998 | 121.13094 | 3046 ft | 247 kts | 67° |
| 2026-05-04 14:26 | 14.57421 | 121.14838 | 3406 ft | 254 kts | 82° |
| 2026-05-04 14:27 | 14.57633 | 121.16661 | 3927 ft | 256 kts | 84° |
| 2026-05-04 14:27 | 14.57830 | 121.18501 | 4406 ft | 260 kts | 83° |
| 2026-05-04 14:27 | 14.58033 | 121.20365 | 4940 ft | 261 kts | 83° |
| 2026-05-04 14:27 | 14.58242 | 121.22234 | 5438 ft | 264 kts | 83° |
| 2026-05-04 14:28 | 14.58457 | 121.24125 | 5928 ft | 266 kts | 82° |
| 2026-05-04 14:28 | 14.58675 | 121.26044 | 6377 ft | 270 kts | 83° |
| 2026-05-04 14:28 | 14.58897 | 121.27986 | 6819 ft | 273 kts | 82° |
| 2026-05-04 14:28 | 14.59116 | 121.29937 | 7342 ft | 274 kts | 82° |
| 2026-05-04 14:29 | 14.59557 | 121.33883 | 8319 ft | 278 kts | 82° |
| 2026-05-04 14:29 | 14.60001 | 121.37844 | 9368 ft | 282 kts | 82° |
| 2026-05-04 14:30 | 14.60228 | 121.39865 | 9839 ft | 285 kts | 82° |
| 2026-05-04 14:30 | 14.60457 | 121.41906 | 10269 ft | 289 kts | 82° |
| 2026-05-04 14:30 | 14.60940 | 121.46206 | 10667 ft | 314 kts | 83° |
| 2026-05-04 14:31 | 14.61195 | 121.48482 | 10856 ft | 326 kts | 83° |
| 2026-05-04 14:31 | 14.61734 | 121.53300 | 11223 ft | 348 kts | 83° |
| 2026-05-04 14:32 | 14.62302 | 121.58408 | 11590 ft | 367 kts | 83° |
| 2026-05-04 14:32 | 14.62593 | 121.61026 | 11751 ft | 377 kts | 83° |
| 2026-05-04 14:32 | 14.62895 | 121.63735 | 12047 ft | 382 kts | 83° |
| 2026-05-04 14:32 | 14.63199 | 121.66472 | 12387 ft | 386 kts | 84° |
| 2026-05-04 14:33 | 14.63507 | 121.69256 | 12576 ft | 393 kts | 84° |
| 2026-05-04 14:33 | 14.63819 | 121.72070 | 12952 ft | 395 kts | 84° |
| 2026-05-04 14:33 | 14.64132 | 121.74899 | 13333 ft | 397 kts | 84° |
| 2026-05-04 14:33 | 14.64446 | 121.77734 | 13702 ft | 399 kts | 84° |
| 2026-05-04 14:34 | 14.64762 | 121.80594 | 14015 ft | 402 kts | 84° |
| 2026-05-04 14:34 | 14.65079 | 121.83474 | 14274 ft | 405 kts | 84° |
| 2026-05-04 14:34 | 14.65400 | 121.86377 | 14589 ft | 408 kts | 84° |
| 2026-05-04 14:34 | 14.65720 | 121.89287 | 14909 ft | 409 kts | 84° |
| 2026-05-04 14:35 | 14.66042 | 121.92217 | 15238 ft | 411 kts | 84° |
| 2026-05-04 14:35 | 14.66366 | 121.95166 | 15566 ft | 414 kts | 84° |
| 2026-05-04 14:35 | 14.66687 | 121.98087 | 15872 ft | 416 kts | 84° |
| 2026-05-04 14:35 | 14.67013 | 122.01066 | 16191 ft | 418 kts | 84° |
| 2026-05-04 14:36 | 14.67341 | 122.04058 | 16513 ft | 420 kts | 84° |
| 2026-05-04 14:36 | 14.67670 | 122.07063 | 16819 ft | 422 kts | 84° |
| 2026-05-04 14:36 | 14.68000 | 122.10087 | 17144 ft | 424 kts | 84° |
| 2026-05-04 14:36 | 14.68330 | 122.13117 | 17462 ft | 426 kts | 84° |
| 2026-05-04 14:37 | 14.68662 | 122.16163 | 17762 ft | 428 kts | 84° |
| 2026-05-04 14:37 | 14.68995 | 122.19221 | 18066 ft | 430 kts | 84° |
| 2026-05-04 14:37 | 14.69330 | 122.22305 | 18342 ft | 432 kts | 84° |
| 2026-05-04 14:37 | 14.69739 | 122.25389 | 18584 ft | 434 kts | 80° |
| 2026-05-04 14:38 | 14.70494 | 122.28425 | 18825 ft | 437 kts | 72° |
| 2026-05-04 14:38 | 14.71686 | 122.31328 | 19066 ft | 440 kts | 63° |
| 2026-05-04 14:38 | 14.73298 | 122.34024 | 19308 ft | 444 kts | 54° |
| 2026-05-04 14:38 | 14.75310 | 122.36460 | 19552 ft | 446 kts | 46° |
| 2026-05-04 14:39 | 14.77638 | 122.38591 | 19834 ft | 448 kts | 40° |
| 2026-05-04 14:39 | 14.80097 | 122.40590 | 20047 ft | 451 kts | 38° |
| 2026-05-04 14:39 | 14.82621 | 122.42539 | 20276 ft | 454 kts | 38° |
| 2026-05-04 14:40 | 14.87720 | 122.46399 | 20704 ft | 458 kts | 37° |
| 2026-05-04 14:40 | 14.90292 | 122.48358 | 20927 ft | 461 kts | 37° |
| 2026-05-04 14:40 | 14.92869 | 122.50336 | 21170 ft | 462 kts | 37° |
| 2026-05-04 14:40 | 14.95455 | 122.52332 | 21407 ft | 464 kts | 38° |
| 2026-05-04 14:41 | 14.98046 | 122.54340 | 21628 ft | 467 kts | 38° |
| 2026-05-04 14:41 | 15.00650 | 122.56363 | 21891 ft | 468 kts | 38° |
| 2026-05-04 14:41 | 15.05883 | 122.60432 | 22352 ft | 472 kts | 38° |
| 2026-05-04 14:42 | 15.11164 | 122.64538 | 22801 ft | 476 kts | 38° |
| 2026-05-04 14:42 | 15.13820 | 122.66604 | 23070 ft | 478 kts | 37° |
| 2026-05-04 14:42 | 15.16486 | 122.68678 | 23236 ft | 481 kts | 37° |
| 2026-05-04 14:43 | 15.19135 | 122.70739 | 23505 ft | 482 kts | 37° |
| 2026-05-04 14:43 | 15.21820 | 122.72829 | 23694 ft | 484 kts | 38° |
| 2026-05-04 14:43 | 15.24524 | 122.74934 | 23851 ft | 486 kts | 37° |
| 2026-05-04 14:43 | 15.27230 | 122.77041 | 24101 ft | 486 kts | 37° |
| 2026-05-04 14:44 | 15.29940 | 122.79153 | 24240 ft | 489 kts | 37° |
| 2026-05-04 14:44 | 15.32669 | 122.81280 | 24465 ft | 490 kts | 37° |
| 2026-05-04 14:44 | 15.35399 | 122.83409 | 24663 ft | 492 kts | 37° |
| 2026-05-04 14:44 | 15.38117 | 122.85528 | 24764 ft | 495 kts | 37° |
| 2026-05-04 14:45 | 15.40867 | 122.87674 | 24993 ft | 496 kts | 37° |
| 2026-05-04 14:45 | 15.43635 | 122.89834 | 25131 ft | 498 kts | 37° |
| 2026-05-04 14:45 | 15.46406 | 122.91998 | 25440 ft | 497 kts | 37° |
| 2026-05-04 14:45 | 15.49174 | 122.94160 | 25602 ft | 500 kts | 37° |
| 2026-05-04 14:46 | 15.51958 | 122.96334 | 25769 ft | 501 kts | 37° |
| 2026-05-04 14:46 | 15.54741 | 122.98510 | 25997 ft | 502 kts | 37° |
| 2026-05-04 14:46 | 15.57540 | 123.00698 | 26112 ft | 505 kts | 37° |
| 2026-05-04 14:46 | 15.60346 | 123.02893 | 26371 ft | 505 kts | 37° |
| 2026-05-04 14:47 | 15.63156 | 123.05091 | 26526 ft | 508 kts | 37° |
| 2026-05-04 14:47 | 15.65983 | 123.07310 | 26774 ft | 507 kts | 37° |
| 2026-05-04 14:47 | 15.68762 | 123.09489 | 26978 ft | 509 kts | 36° |
| 2026-05-04 14:47 | 15.71601 | 123.11711 | 27128 ft | 511 kts | 36° |
| 2026-05-04 14:48 | 15.74440 | 123.13932 | 27367 ft | 511 kts | 36° |
| 2026-05-04 14:48 | 15.77294 | 123.16167 | 27515 ft | 513 kts | 36° |
| 2026-05-04 14:48 | 15.80143 | 123.18399 | 27762 ft | 513 kts | 36° |
| 2026-05-04 14:48 | 15.82997 | 123.20637 | 27957 ft | 515 kts | 36° |
| 2026-05-04 14:49 | 15.85864 | 123.22886 | 28124 ft | 516 kts | 36° |
| 2026-05-04 14:49 | 15.88732 | 123.25136 | 28321 ft | 517 kts | 36° |
| 2026-05-04 14:49 | 15.91607 | 123.27394 | 28460 ft | 519 kts | 36° |
| 2026-05-04 14:49 | 15.94486 | 123.29656 | 28652 ft | 519 kts | 36° |
| 2026-05-04 14:50 | 15.97338 | 123.31897 | 28772 ft | 521 kts | 36° |
| 2026-05-04 14:50 | 16.00229 | 123.34170 | 29011 ft | 520 kts | 36° |
| 2026-05-04 14:50 | 16.03119 | 123.36443 | 29242 ft | 520 kts | 36° |
| 2026-05-04 14:50 | 16.05998 | 123.38708 | 29482 ft | 519 kts | 36° |
| 2026-05-04 14:51 | 16.08884 | 123.40980 | 29740 ft | 518 kts | 36° |
| 2026-05-04 14:51 | 16.11763 | 123.43246 | 29949 ft | 518 kts | 36° |
| 2026-05-04 14:51 | 16.14635 | 123.45508 | 30169 ft | 517 kts | 36° |
| 2026-05-04 14:51 | 16.17511 | 123.47774 | 30370 ft | 517 kts | 36° |
| 2026-05-04 14:52 | 16.20340 | 123.50004 | 30547 ft | 517 kts | 36° |
| 2026-05-04 14:52 | 16.23205 | 123.52262 | 30748 ft | 516 kts | 36° |
| 2026-05-04 14:52 | 16.26068 | 123.54521 | 30935 ft | 516 kts | 36° |
| 2026-05-04 14:52 | 16.27968 | 123.56019 | 31077 ft | 516 kts | 36° |
| 2026-05-04 14:53 | 16.30833 | 123.58280 | 31254 ft | 515 kts | 36° |
| 2026-05-04 14:53 | 16.33690 | 123.60536 | 31443 ft | 515 kts | 36° |
| 2026-05-04 14:53 | 16.36543 | 123.62790 | 31622 ft | 515 kts | 36° |
| 2026-05-04 14:53 | 16.39389 | 123.65038 | 31814 ft | 514 kts | 36° |
| 2026-05-04 14:54 | 16.42245 | 123.67296 | 31980 ft | 514 kts | 35° |
| 2026-05-04 14:54 | 16.45102 | 123.69555 | 32150 ft | 514 kts | 36° |
| 2026-05-04 14:54 | 16.47943 | 123.71802 | 32278 ft | 514 kts | 36° |
| 2026-05-04 14:54 | 16.50800 | 123.74063 | 32440 ft | 514 kts | 35° |
| 2026-05-04 14:55 | 16.53649 | 123.76318 | 32601 ft | 514 kts | 35° |
| 2026-05-04 14:55 | 16.56492 | 123.78570 | 32774 ft | 513 kts | 35° |
| 2026-05-04 14:55 | 16.59300 | 123.80794 | 32917 ft | 513 kts | 35° |
| 2026-05-04 14:55 | 16.62147 | 123.83051 | 32980 ft | 516 kts | 35° |
| 2026-05-04 14:56 | 16.67898 | 123.87609 | 32986 ft | 519 kts | 35° |
| 2026-05-04 14:56 | 16.73644 | 123.92170 | 32994 ft | 519 kts | 35° |
| 2026-05-04 14:57 | 16.79388 | 123.96732 | 32983 ft | 518 kts | 35° |